Airfield :
LOGIN :

Register | Disclaimer

   EN    FR    IT 

 










Legend :    VFR   Marginal VFR   IFR   Intensive IFR   Very Intensive IFR
Visi :
Ceiling :
>= 8 km
>= 3000ft
5 to 8 km
1000 to 3000 ft
1500m to 5 km
500 to 1000 ft
800 to 1500m
200 to 500 ft
< 800m
< 200 ft
Symbols :   Thunderstorms  Fog  Heavy snow  Heavy precipitations  Wind > 20 kt
SIGMETs :     Misc.  Thunderstorms  Icing  Turbulence  Mountain Waves  Volcanic Ashes







- Airport Elevation : 1115 ft
- IATA code : GRZ


LOWG - Graz

CURRENT METAR :
  • 160820Z VRB01KT 4000 BR FEW080 BKN120 00/M00 Q1004 BECMG 6000 NSW

EXPIRED METARs :
  • 160750Z 33002KT 5000 BR FEW080 BKN120 00/00 Q1004 TEMPO 4000 BR
  • 160720Z VRB01KT 5000 1800W R17/P1500D R35/P1500U BR FEW080 BKN120 M01/M01 Q1003 NOSIG
  • 160650Z VRB02KT 5000 3000N R17/P1500D R35/P1500U BR FEW080 BKN120 M00/M01 Q1003 NOSIG
  • 160620Z VRB01KT 5000 BR FEW080 BKN110 00/M00 Q1002 TEMPO 4000 BR
  • 160550Z 15004KT 6000 FEW080 BKN100 M00/M00 Q1002 NOSIG

TAF AMD TAF LOWG
Valid from the 16 at 08:00 until the 17 at 06:00 UTC


160808Z 1608/1706 VRB02KT 9999 SCT010 BKN060 TX05/1612Z TNM04/1706Z
PROB40
TEMPO 1608/1609 3000 BR
No reported NOTAMs for that airfield.



MET'MAP, your aeronautical weather chart ! - Copyright ORBIFLY December 2007 - Disclaimer

ORBIFLY MET'MAP TEAM :

Programming & Development : Alexandra Zaïnal
Concept & Development : Baudouin d'Aumeries
Co-Development & Prog : Marc-Olivier Méhu
Technical & hardware support : Manuel Goepfert

Contact : metmap@orbifly.com




SOURCES & CREDITS :

   NOAA